Time;durP1;ratioP1;P1;durP2;ratioP2;P2;SDS_P1;SDS_P2;PMS_P1;PMS_P2;Temp;Humidity;BMP_temperature;BMP_pressure;BME280_temperature;BME280_humidity;BME280_pressure;Samples;Min_cycle;Max_cycle;Signal;HPM_P1;HPM_P2
2023/01/16 00:00:15;;;;;;;13.32;6.65;;;;;;;;;;8396217;28;20052;-87
2023/01/16 00:04:39;;;;;;;12.40;6.05;;;;;;;;;;8429244;28;20043;-86
2023/01/16 00:08:42;;;;;;;10.35;6.10;;;;;;;;;;8429404;28;20097;-86
2023/01/16 00:12:48;;;;;;;12.68;6.35;;;;;;;;;;8422714;28;20041;-86
2023/01/16 00:16:51;;;;;;;13.75;7.65;;;;;;;;;;8395635;28;20051;-86
2023/01/16 00:20:55;;;;;;;13.02;7.43;;;;;;;;;;8409339;28;20043;-86
2023/01/16 00:24:58;;;;;;;14.32;7.43;;;;;;;;;;8409197;28;20048;-86
2023/01/16 00:29:02;;;;;;;17.23;8.50;;;;;;;;;;8395477;28;20481;-86
2023/01/16 00:33:05;;;;;;;20.85;9.55;;;;;;;;;;8377899;28;20135;-86
2023/01/16 00:37:09;;;;;;;13.93;8.30;;;;;;;;;;8402642;28;20554;-86
2023/01/16 00:41:12;;;;;;;15.48;8.38;;;;;;;;;;8415337;28;20054;-86
2023/01/16 00:45:15;;;;;;;13.75;7.00;;;;;;;;;;8415310;28;20615;-86
2023/01/16 00:49:18;;;;;;;23.80;9.55;;;;;;;;;;8427453;28;20112;-86
2023/01/16 00:53:23;;;;;;;19.45;9.95;;;;;;;;;;8422664;28;20046;-86
2023/01/16 00:57:26;;;;;;;17.52;9.13;;;;;;;;;;8421739;28;20130;-86
2023/01/16 01:01:28;;;;;;;20.02;10.10;;;;;;;;;;8414708;28;20056;-86
2023/01/16 01:05:31;;;;;;;17.67;8.98;;;;;;;;;;8401478;28;20048;-86
2023/01/16 01:09:36;;;;;;;18.08;8.73;;;;;;;;;;8401295;28;20082;-86
2023/01/16 01:13:40;;;;;;;15.77;7.90;;;;;;;;;;8414758;28;20048;-85
2023/01/16 01:17:43;;;;;;;14.77;7.40;;;;;;;;;;8401387;28;20044;-85
2023/01/16 01:21:46;;;;;;;19.98;9.50;;;;;;;;;;8401080;28;20048;-86
2023/01/16 01:25:52;;;;;;;18.77;8.82;;;;;;;;;;8400878;28;20441;-86
2023/01/16 01:29:58;;;;;;;20.52;9.07;;;;;;;;;;8414145;28;20185;-86
2023/01/16 01:34:00;;;;;;;20.58;10.00;;;;;;;;;;8400467;28;20097;-86
2023/01/16 01:38:04;;;;;;;19.40;9.40;;;;;;;;;;8400677;28;20049;-85
2023/01/16 01:46:41;;;;;;;18.23;8.60;;;;;;;;;;8404380;28;20404;-86
2023/01/16 01:50:48;;;;;;;17.75;8.75;;;;;;;;;;8410959;28;20412;-86
2023/01/16 01:54:55;;;;;;;16.23;8.40;;;;;;;;;;8401670;28;20472;-86
2023/01/16 01:59:03;;;;;;;12.30;6.18;;;;;;;;;;8400225;28;20048;-85
2023/01/16 02:03:11;;;;;;;17.65;8.43;;;;;;;;;;8399577;28;20060;-86
2023/01/16 02:07:19;;;;;;;19.45;8.60;;;;;;;;;;8399722;28;20063;-86
2023/01/16 02:11:27;;;;;;;16.67;8.90;;;;;;;;;;8399828;28;20045;-87
2023/01/16 02:15:32;;;;;;;19.08;9.05;;;;;;;;;;8426413;28;20048;-86
2023/01/16 02:19:42;;;;;;;15.23;8.20;;;;;;;;;;8399775;28;20182;-86
2023/01/16 02:24:08;;;;;;;15.82;7.65;;;;;;;;;;8399351;28;20070;-86
2023/01/16 02:28:52;;;;;;;18.92;8.43;;;;;;;;;;8425580;28;20069;-86
2023/01/16 02:33:04;;;;;;;16.15;8.88;;;;;;;;;;8344799;28;20045;-86
2023/01/16 02:37:15;;;;;;;23.77;11.10;;;;;;;;;;8333022;28;20049;-86
2023/01/16 02:41:26;;;;;;;18.95;8.43;;;;;;;;;;8332746;28;20045;-86
2023/01/16 02:45:35;;;;;;;15.88;7.75;;;;;;;;;;8332360;28;20264;-86
2023/01/16 02:49:41;;;;;;;18.48;7.93;;;;;;;;;;8332253;28;20049;-86
2023/01/16 02:53:49;;;;;;;19.63;8.18;;;;;;;;;;8332133;28;20132;-86
2023/01/16 02:57:57;;;;;;;18.90;9.05;;;;;;;;;;8332389;28;20050;-86
2023/01/16 03:02:03;;;;;;;23.42;10.15;;;;;;;;;;8332005;28;20064;-86
2023/01/16 03:06:23;;;;;;;22.45;10.88;;;;;;;;;;8331758;28;20051;-86
2023/01/16 03:10:46;;;;;;;18.95;9.25;;;;;;;;;;8331844;28;20550;-86
2023/01/16 03:14:57;;;;;;;25.25;9.85;;;;;;;;;;8330810;28;20045;-86
2023/01/16 03:19:13;;;;;;;25.20;10.48;;;;;;;;;;8331589;28;20046;-86
2023/01/16 03:23:25;;;;;;;23.02;10.73;;;;;;;;;;8331249;28;20404;-86
2023/01/16 03:27:39;;;;;;;26.73;10.98;;;;;;;;;;8331027;28;20045;-86
2023/01/16 03:31:49;;;;;;;29.15;11.95;;;;;;;;;;8376974;28;20419;-86
2023/01/16 03:35:55;;;;;;;21.40;11.45;;;;;;;;;;8397141;28;20132;-86
2023/01/16 03:40:03;;;;;;;24.92;9.25;;;;;;;;;;8396663;28;20044;-86
2023/01/16 03:44:12;;;;;;;19.17;8.98;;;;;;;;;;8396631;28;20049;-86
2023/01/16 03:48:25;;;;;;;28.63;10.95;;;;;;;;;;8396369;28;20041;-87
2023/01/16 03:52:35;;;;;;;20.38;9.88;;;;;;;;;;8422272;28;20048;-85
2023/01/16 03:56:47;;;;;;;27.65;10.70;;;;;;;;;;8429884;28;20484;-86
2023/01/16 04:00:58;;;;;;;26.00;11.23;;;;;;;;;;8414812;28;20182;-85
2023/01/16 04:05:04;;;;;;;22.98;10.75;;;;;;;;;;8396189;28;20051;-86
2023/01/16 04:09:11;;;;;;;33.15;11.73;;;;;;;;;;8395924;28;20048;-86
2023/01/16 04:13:19;;;;;;;23.55;9.88;;;;;;;;;;8405713;28;20127;-86
2023/01/16 04:17:23;;;;;;;28.20;12.05;;;;;;;;;;8398086;28;20476;-85
2023/01/16 04:21:28;;;;;;;34.25;12.70;;;;;;;;;;8395664;28;20052;-86
2023/01/16 04:25:31;;;;;;;30.50;12.30;;;;;;;;;;8394923;28;20040;-86
2023/01/16 04:29:35;;;;;;;34.85;12.27;;;;;;;;;;8406596;28;20411;-86
2023/01/16 04:33:38;;;;;;;22.90;10.20;;;;;;;;;;8415068;28;20399;-86
2023/01/16 04:37:41;;;;;;;35.78;10.90;;;;;;;;;;8428694;28;20434;-86
2023/01/16 04:41:46;;;;;;;28.05;10.32;;;;;;;;;;8410526;28;20097;-85
2023/01/16 04:45:51;;;;;;;29.85;11.15;;;;;;;;;;8395260;28;20480;-86
2023/01/16 04:49:53;;;;;;;32.83;11.05;;;;;;;;;;8395234;28;20062;-86
2023/01/16 04:53:56;;;;;;;25.17;10.40;;;;;;;;;;8406447;28;20068;-86
2023/01/16 04:57:59;;;;;;;29.98;10.98;;;;;;;;;;8396725;28;20048;-86
2023/01/16 05:02:04;;;;;;;29.90;10.88;;;;;;;;;;8406457;28;20048;-86
2023/01/16 05:06:07;;;;;;;29.20;10.70;;;;;;;;;;8401190;28;20143;-86
2023/01/16 05:10:11;;;;;;;39.72;11.20;;;;;;;;;;8428340;28;20048;-86
2023/01/16 05:14:14;;;;;;;32.63;12.07;;;;;;;;;;8395803;28;20171;-86
2023/01/16 05:18:18;;;;;;;38.53;14.32;;;;;;;;;;8406884;28;20048;-86
2023/01/16 05:22:21;;;;;;;28.63;10.95;;;;;;;;;;8416212;28;20040;-86
2023/01/16 05:26:24;;;;;;;28.48;10.40;;;;;;;;;;8407202;28;20044;-85
2023/01/16 05:30:27;;;;;;;31.92;12.13;;;;;;;;;;8412309;28;20483;-86
2023/01/16 05:34:32;;;;;;;29.73;11.75;;;;;;;;;;8407713;28;20444;-85
2023/01/16 05:38:34;;;;;;;37.28;13.70;;;;;;;;;;8410759;28;20053;-86
2023/01/16 05:42:37;;;;;;;30.08;11.82;;;;;;;;;;8430239;28;20050;-86
2023/01/16 05:46:40;;;;;;;67.60;27.33;;;;;;;;;;8420049;28;20131;-86
2023/01/16 05:50:45;;;;;;;32.30;15.18;;;;;;;;;;8411340;28;20487;-87
2023/01/16 05:54:48;;;;;;;33.90;13.52;;;;;;;;;;8404442;28;20128;-86
2023/01/16 05:58:50;;;;;;;33.63;13.88;;;;;;;;;;8397574;28;20051;-85
2023/01/16 06:02:53;;;;;;;28.13;11.23;;;;;;;;;;8415352;28;20047;-85
2023/01/16 06:06:58;;;;;;;25.38;11.13;;;;;;;;;;8412267;28;20101;-86
2023/01/16 06:11:01;;;;;;;36.65;13.98;;;;;;;;;;8413026;28;20393;-86
2023/01/16 06:15:04;;;;;;;33.38;13.55;;;;;;;;;;8414775;28;20595;-86
2023/01/16 06:19:07;;;;;;;59.63;30.45;;;;;;;;;;8421014;28;20062;-86
2023/01/16 06:23:12;;;;;;;31.13;17.15;;;;;;;;;;8419285;28;20427;-84
2023/01/16 06:27:15;;;;;;;175.48;75.00;;;;;;;;;;8424574;28;20040;-84
2023/01/16 06:31:18;;;;;;;167.93;57.50;;;;;;;;;;8416981;28;20567;-86
2023/01/16 06:35:20;;;;;;;150.90;55.53;;;;;;;;;;8401566;28;20468;-86
2023/01/16 06:39:25;;;;;;;106.97;43.90;;;;;;;;;;8419119;28;20045;-86
2023/01/16 06:43:28;;;;;;;113.63;47.05;;;;;;;;;;8410598;28;20037;-86
2023/01/16 06:47:32;;;;;;;100.72;46.35;;;;;;;;;;8410211;28;20080;-86
2023/01/16 06:51:35;;;;;;;109.35;49.67;;;;;;;;;;8406991;28;20044;-86
2023/01/16 06:55:40;;;;;;;98.30;44.45;;;;;;;;;;8406209;28;20131;-86
2023/01/16 06:59:43;;;;;;;59.60;26.25;;;;;;;;;;8411394;28;20095;-88
2023/01/16 07:03:46;;;;;;;73.10;30.98;;;;;;;;;;8420672;28;20047;-86
2023/01/16 07:07:49;;;;;;;161.93;57.65;;;;;;;;;;8405686;28;20044;-86
2023/01/16 07:11:53;;;;;;;140.70;51.42;;;;;;;;;;8404151;28;20036;-87
2023/01/16 07:24:46;;;;;;;160.15;60.60;;;;;;;;;;8368486;28;20060;-88
2023/01/16 07:28:53;;;;;;;146.80;53.90;;;;;;;;;;8398677;28;20385;-86
2023/01/16 07:32:56;;;;;;;99.38;34.33;;;;;;;;;;8419833;28;20046;-86
2023/01/16 07:36:59;;;;;;;108.38;38.63;;;;;;;;;;8420145;28;20052;-84
2023/01/16 07:41:03;;;;;;;85.45;34.08;;;;;;;;;;8414929;28;20048;-87
2023/01/16 07:45:08;;;;;;;53.13;22.23;;;;;;;;;;8421903;28;20039;-85
2023/01/16 07:49:11;;;;;;;55.75;21.48;;;;;;;;;;8409846;28;20531;-86
2023/01/16 07:53:14;;;;;;;63.33;29.58;;;;;;;;;;8402117;28;20407;-88
2023/01/16 07:57:17;;;;;;;296.20;147.88;;;;;;;;;;8413200;28;20488;-88
2023/01/16 08:01:21;;;;;;;203.77;103.05;;;;;;;;;;8406500;28;20475;-88
2023/01/16 08:05:24;;;;;;;107.22;47.20;;;;;;;;;;8414132;28;20563;-86
2023/01/16 08:09:27;;;;;;;138.75;58.78;;;;;;;;;;8405308;28;20040;-86
2023/01/16 08:13:40;;;;;;;227.35;76.78;;;;;;;;;;8410012;28;20051;-84
2023/01/16 08:17:44;;;;;;;114.95;43.15;;;;;;;;;;8409501;28;20051;-86
2023/01/16 08:21:48;;;;;;;60.97;30.50;;;;;;;;;;8411788;28;20421;-86
2023/01/16 08:25:52;;;;;;;167.80;82.50;;;;;;;;;;8423101;28;20123;-86
2023/01/16 08:29:55;;;;;;;325.10;188.02;;;;;;;;;;8421096;28;20060;-86
2023/01/16 08:34:00;;;;;;;143.65;63.53;;;;;;;;;;8423339;28;20048;-87
2023/01/16 08:38:03;;;;;;;247.80;125.20;;;;;;;;;;8415354;28;20048;-86
2023/01/16 08:55:09;;;;;;;134.10;75.13;;;;;;;;;;8422751;28;20113;-87
2023/01/16 08:59:12;;;;;;;151.38;93.00;;;;;;;;;;8417627;28;20079;-86
2023/01/16 09:03:17;;;;;;;107.88;71.13;;;;;;;;;;8422211;28;20044;-87
2023/01/16 09:07:21;;;;;;;95.70;63.00;;;;;;;;;;8409636;28;20052;-86
2023/01/16 09:15:56;;;;;;;55.33;32.70;;;;;;;;;;8342607;28;20062;-87
2023/01/16 09:20:08;;;;;;;62.40;46.17;;;;;;;;;;8428873;28;20306;-87
2023/01/16 09:24:13;;;;;;;48.08;29.48;;;;;;;;;;8417930;28;20501;-87
2023/01/16 09:28:17;;;;;;;101.18;80.20;;;;;;;;;;8428930;28;20210;-87
2023/01/16 09:32:21;;;;;;;48.38;32.97;;;;;;;;;;8417211;28;20053;-86
2023/01/16 09:36:24;;;;;;;105.63;61.72;;;;;;;;;;8411651;28;20067;-86
2023/01/16 09:40:29;;;;;;;60.17;30.30;;;;;;;;;;8420219;28;20067;-86
2023/01/16 09:44:32;;;;;;;33.97;19.00;;;;;;;;;;8420268;28;20048;-86
2023/01/16 09:48:39;;;;;;;41.10;22.75;;;;;;;;;;8412196;28;20044;-86
2023/01/16 10:01:39;;;;;;;48.45;24.30;;;;;;;;;;8407832;28;20040;-87
2023/01/16 10:05:49;;;;;;;69.22;57.13;;;;;;;;;;8430147;28;20562;-86
2023/01/16 10:10:01;;;;;;;38.50;24.67;;;;;;;;;;8410513;28;20070;-86
2023/01/16 10:14:24;;;;;;;62.00;33.67;;;;;;;;;;8418745;28;20040;-86
2023/01/16 10:18:35;;;;;;;28.52;13.23;;;;;;;;;;8406027;28;20420;-86
2023/01/16 10:22:50;;;;;;;49.15;32.05;;;;;;;;;;8404712;28;20040;-85
2023/01/16 10:26:58;;;;;;;28.80;17.17;;;;;;;;;;8419193;28;20036;-86
2023/01/16 10:31:09;;;;;;;23.00;13.13;;;;;;;;;;8419914;28;20056;-86
2023/01/16 10:35:18;;;;;;;16.48;8.18;;;;;;;;;;8414287;28;20135;-86
2023/01/16 10:39:22;;;;;;;21.35;11.98;;;;;;;;;;8413682;28;20044;-85
2023/01/16 10:52:18;;;;;;;22.27;13.00;;;;;;;;;;8404568;28;20174;-85
2023/01/16 10:56:21;;;;;;;33.33;18.67;;;;;;;;;;8416155;28;20044;-87
2023/01/16 11:00:29;;;;;;;19.60;11.88;;;;;;;;;;8407368;28;20041;-86
2023/01/16 11:04:37;;;;;;;22.23;11.10;;;;;;;;;;8410458;28;20538;-86
2023/01/16 11:08:42;;;;;;;17.58;9.38;;;;;;;;;;8420122;28;20440;-86
2023/01/16 11:21:53;;;;;;;16.95;9.63;;;;;;;;;;8423491;28;20094;-87
2023/01/16 11:25:58;;;;;;;21.02;8.60;;;;;;;;;;8422653;28;20036;-87
2023/01/16 11:30:09;;;;;;;24.60;13.88;;;;;;;;;;8419119;28;20135;-87
2023/01/16 11:34:14;;;;;;;22.55;8.75;;;;;;;;;;8402606;28;20537;-87
2023/01/16 11:38:19;;;;;;;13.68;8.13;;;;;;;;;;8419443;28;20043;-87
2023/01/16 11:46:43;;;;;;;12.10;7.32;;;;;;;;;;8422844;28;20052;-87
2023/01/16 11:50:49;;;;;;;14.45;8.57;;;;;;;;;;8411579;28;20142;-87
2023/01/16 11:54:55;;;;;;;14.02;7.32;;;;;;;;;;8423358;28;20086;-87
2023/01/16 11:59:15;;;;;;;23.85;12.25;;;;;;;;;;8424660;28;20055;-87
2023/01/16 12:03:59;;;;;;;19.42;11.23;;;;;;;;;;8424378;28;20048;-87
2023/01/16 12:08:21;;;;;;;33.10;19.83;;;;;;;;;;8417773;28;20071;-88
2023/01/16 12:17:10;;;;;;;17.83;9.97;;;;;;;;;;8403627;28;20071;-85
2023/01/16 12:21:26;;;;;;;23.48;10.15;;;;;;;;;;8409835;28;20396;-87
2023/01/16 12:25:34;;;;;;;14.68;8.75;;;;;;;;;;8405056;28;20041;-86
2023/01/16 12:29:51;;;;;;;15.18;7.63;;;;;;;;;;8406770;28;20059;-86
2023/01/16 12:34:03;;;;;;;15.57;8.38;;;;;;;;;;8416843;28;20044;-87
2023/01/16 12:38:13;;;;;;;;;;;;;;;;;;8412458;28;20054;-86
2023/01/16 12:47:08;;;;;;;21.23;10.00;;;;;;;;;;8412204;28;20495;-86
2023/01/16 12:51:25;;;;;;;16.95;10.07;;;;;;;;;;8417363;28;20040;-86
2023/01/16 12:55:40;;;;;;;14.68;8.77;;;;;;;;;;8426718;28;20051;-86
2023/01/16 12:59:48;;;;;;;22.63;7.97;;;;;;;;;;8424920;28;20490;-87
2023/01/16 13:03:58;;;;;;;17.00;8.27;;;;;;;;;;8424222;28;20044;-87
2023/01/16 13:08:15;;;;;;;18.92;9.32;;;;;;;;;;8429067;28;20119;-87
2023/01/16 13:16:45;;;;;;;26.40;13.25;;;;;;;;;;8420303;28;20380;-87
2023/01/16 13:20:54;;;;;;;19.90;9.02;;;;;;;;;;8426211;28;20048;-87
2023/01/16 13:25:03;;;;;;;23.15;12.25;;;;;;;;;;8416386;28;20079;-87
2023/01/16 13:29:11;;;;;;;16.65;9.85;;;;;;;;;;8418543;28;20494;-86
2023/01/16 13:33:20;;;;;;;11.25;6.93;;;;;;;;;;8426809;28;20103;-87
2023/01/16 13:37:38;;;;;;;17.30;8.48;;;;;;;;;;8421329;28;20044;-87
2023/01/16 13:41:46;;;;;;;18.50;8.50;;;;;;;;;;8425606;28;20040;-87
2023/01/16 13:45:53;;;;;;;11.60;6.22;;;;;;;;;;8423174;28;20040;-87
2023/01/16 13:50:07;;;;;;;12.23;7.47;;;;;;;;;;8428778;28;20556;-87
2023/01/16 13:54:16;;;;;;;9.30;4.75;;;;;;;;;;8425447;28;20514;-86
2023/01/16 13:58:22;;;;;;;12.13;6.53;;;;;;;;;;8421542;28;20123;-87
2023/01/16 14:02:39;;;;;;;9.80;4.88;;;;;;;;;;8411656;28;20040;-86
2023/01/16 14:06:47;;;;;;;10.88;5.15;;;;;;;;;;8425421;28;20055;-87
2023/01/16 14:11:16;;;;;;;9.85;5.53;;;;;;;;;;8422483;28;20046;-87
2023/01/16 14:19:51;;;;;;;12.52;8.50;;;;;;;;;;8414430;28;20049;-86
2023/01/16 14:24:05;;;;;;;;;;;;;;;;;;8419988;28;20104;-84
2023/01/16 14:28:18;;;;;;;12.30;7.03;;;;;;;;;;8412691;28;20320;-86
2023/01/16 14:32:24;;;;;;;8.65;5.03;;;;;;;;;;8412806;28;20075;-87
2023/01/16 14:36:29;;;;;;;9.68;5.25;;;;;;;;;;8417009;28;20100;-87
2023/01/16 14:58:36;;;;;;;9.88;5.30;;;;;;;;;;8417329;28;20364;-85
2023/01/16 15:02:47;;;;;;;10.25;4.53;;;;;;;;;;8425901;28;20044;-85
2023/01/16 15:06:54;;;;;;;10.90;6.33;;;;;;;;;;8425604;28;20040;-86
2023/01/16 15:11:30;;;;;;;10.65;4.90;;;;;;;;;;8406297;28;20045;-86
2023/01/16 15:15:23;;;;;;;4.75;3.05;;;;;;;;;;8415715;28;20044;-86
2023/01/16 15:23:49;;;;;;;7.73;4.87;;;;;;;;;;8417566;28;20510;-87
2023/01/16 15:28:01;;;;;;;5.47;3.40;;;;;;;;;;8414516;28;20307;-86
2023/01/16 15:32:09;;;;;;;10.17;5.50;;;;;;;;;;8415934;28;20056;-86
2023/01/16 15:36:21;;;;;;;9.02;5.38;;;;;;;;;;8421061;28;20491;-86
2023/01/16 15:40:25;;;;;;;7.72;4.88;;;;;;;;;;8414156;28;20052;-86
2023/01/16 15:49:02;;;;;;;23.20;17.33;;;;;;;;;;8415632;28;20042;-86
2023/01/16 15:53:07;;;;;;;13.60;9.02;;;;;;;;;;8411189;28;20181;-86
2023/01/16 15:57:17;;;;;;;10.63;6.57;;;;;;;;;;8415843;28;20122;-87
2023/01/16 16:01:29;;;;;;;13.53;7.73;;;;;;;;;;8410602;28;20045;-86
2023/01/16 16:05:34;;;;;;;10.70;6.10;;;;;;;;;;8408078;28;20048;-87
2023/01/16 16:09:45;;;;;;;9.82;5.93;;;;;;;;;;8409971;28;20048;-86
2023/01/16 16:13:50;;;;;;;20.77;11.30;;;;;;;;;;8415667;28;20055;-87
2023/01/16 16:18:01;;;;;;;12.20;7.35;;;;;;;;;;8416786;28;20052;-86
2023/01/16 16:26:41;;;;;;;11.20;6.82;;;;;;;;;;8415540;28;20047;-88
2023/01/16 16:30:45;;;;;;;13.55;8.77;;;;;;;;;;8421795;28;20063;-88
2023/01/16 16:34:54;;;;;;;12.85;7.63;;;;;;;;;;8421195;28;20048;-87
2023/01/16 16:38:58;;;;;;;9.00;5.97;;;;;;;;;;8406045;28;20053;-87
2023/01/16 16:43:03;;;;;;;10.27;6.53;;;;;;;;;;8420646;28;20059;-87
2023/01/16 16:47:30;;;;;;;13.07;8.07;;;;;;;;;;8397833;28;20817;-87
2023/01/16 16:51:33;;;;;;;13.57;7.90;;;;;;;;;;8412708;28;20095;-88
2023/01/16 16:55:38;;;;;;;18.27;10.32;;;;;;;;;;8410240;28;20610;-86
2023/01/16 16:59:44;;;;;;;10.65;6.65;;;;;;;;;;8405678;28;20053;-87
2023/01/16 17:03:51;;;;;;;12.25;6.78;;;;;;;;;;8418501;28;20036;-87
2023/01/16 17:07:56;;;;;;;16.17;8.07;;;;;;;;;;8414145;28;20404;-87
2023/01/16 17:12:12;;;;;;;11.98;7.15;;;;;;;;;;8403478;28;20044;-87
2023/01/16 17:16:21;;;;;;;16.92;8.88;;;;;;;;;;8401308;28;20040;-87
2023/01/16 17:20:26;;;;;;;15.93;7.38;;;;;;;;;;8421203;28;20048;-87
2023/01/16 17:24:30;;;;;;;17.58;10.77;;;;;;;;;;8401883;28;20044;-87
2023/01/16 17:28:33;;;;;;;6.82;4.47;;;;;;;;;;8400956;28;20911;-86
2023/01/16 17:32:39;;;;;;;10.80;6.40;;;;;;;;;;8409883;28;20052;-87
2023/01/16 17:36:43;;;;;;;12.18;7.30;;;;;;;;;;8418094;28;20044;-87
2023/01/16 17:40:58;;;;;;;11.13;6.20;;;;;;;;;;8421171;28;20089;-87
2023/01/16 17:55:50;;;;;;;15.95;8.68;;;;;;;;;;8422813;28;20498;-84
2023/01/16 17:58:42;;;;;;;12.65;8.38;;;;;;;;;;8416774;28;20036;-86
2023/01/16 18:02:48;;;;;;;18.05;9.85;;;;;;;;;;8426017;28;20048;-88
2023/01/16 18:06:54;;;;;;;8.10;4.95;;;;;;;;;;8413335;28;20052;-88
2023/01/16 18:17:20;;;;;;;15.50;8.35;;;;;;;;;;8420133;28;20048;-86
2023/01/16 18:19:57;;;;;;;21.23;12.70;;;;;;;;;;8291234;28;20099;-86
2023/01/16 18:24:02;;;;;;;25.23;12.32;;;;;;;;;;8425733;28;20055;-87
2023/01/16 18:28:07;;;;;;;15.38;10.15;;;;;;;;;;8404344;28;20109;-86
2023/01/16 18:32:22;;;;;;;10.85;6.95;;;;;;;;;;8422342;28;20113;-86
2023/01/16 18:36:28;;;;;;;16.83;10.88;;;;;;;;;;8400623;28;20052;-86
2023/01/16 19:02:45;;;;;;;15.63;7.78;;;;;;;;;;8406463;28;20067;-85
2023/01/16 19:06:49;;;;;;;14.60;8.10;;;;;;;;;;8410222;28;20048;-87
2023/01/16 19:10:58;;;;;;;13.35;7.55;;;;;;;;;;8400099;28;20051;-87
2023/01/16 19:15:05;;;;;;;19.33;9.60;;;;;;;;;;8420862;28;20071;-87
2023/01/16 19:19:09;;;;;;;17.38;9.05;;;;;;;;;;8422367;28;20051;-86
2023/01/16 19:23:13;;;;;;;13.23;7.40;;;;;;;;;;8411282;28;20614;-86
2023/01/16 19:27:21;;;;;;;13.23;7.95;;;;;;;;;;8415017;28;20052;-86
2023/01/16 19:31:28;;;;;;;7.70;4.35;;;;;;;;;;8410188;28;20102;-86
2023/01/16 19:35:32;;;;;;;15.45;7.88;;;;;;;;;;8410102;28;20044;-84
2023/01/16 19:39:36;;;;;;;17.17;7.38;;;;;;;;;;8425176;28;20156;-87
2023/01/16 19:48:03;;;;;;;11.93;5.65;;;;;;;;;;8421971;28;20073;-86
2023/01/16 19:52:07;;;;;;;17.92;8.63;;;;;;;;;;8421016;28;20068;-86
2023/01/16 19:56:11;;;;;;;13.30;6.47;;;;;;;;;;8421194;28;20048;-86
2023/01/16 20:00:15;;;;;;;14.98;8.20;;;;;;;;;;8423995;28;20798;-85
2023/01/16 20:04:22;;;;;;;10.60;5.53;;;;;;;;;;8417952;28;20044;-85
2023/01/16 20:08:26;;;;;;;13.95;7.30;;;;;;;;;;8417691;28;20047;-86
2023/01/16 20:12:32;;;;;;;12.90;7.15;;;;;;;;;;8414405;28;20055;-85
2023/01/16 20:16:35;;;;;;;18.35;7.65;;;;;;;;;;8421445;28;20047;-85
2023/01/16 20:20:40;;;;;;;11.25;6.22;;;;;;;;;;8422620;28;20051;-86
2023/01/16 20:24:44;;;;;;;15.52;8.07;;;;;;;;;;8415083;28;20052;-86
2023/01/16 20:28:48;;;;;;;16.55;8.50;;;;;;;;;;8413262;28;20043;-86
2023/01/16 20:32:53;;;;;;;16.48;8.35;;;;;;;;;;8409267;28;20055;-85
2023/01/16 20:37:00;;;;;;;15.00;8.10;;;;;;;;;;8413849;28;20040;-85
2023/01/16 20:41:12;;;;;;;16.40;7.88;;;;;;;;;;8396773;28;20407;-85
2023/01/16 20:49:38;;;;;;;17.90;7.45;;;;;;;;;;8410362;28;20532;-86
2023/01/16 20:53:46;;;;;;;14.85;7.82;;;;;;;;;;8419320;28;20048;-86
2023/01/16 20:57:53;;;;;;;16.83;9.07;;;;;;;;;;8423690;28;20442;-86
2023/01/16 21:01:58;;;;;;;19.08;10.35;;;;;;;;;;8404919;28;20055;-86
2023/01/16 21:06:03;;;;;;;14.80;8.13;;;;;;;;;;8413138;28;20117;-87
2023/01/16 21:10:09;;;;;;;14.07;7.68;;;;;;;;;;8413175;28;20074;-87
2023/01/16 21:14:14;;;;;;;17.00;7.40;;;;;;;;;;8413083;28;20127;-88
2023/01/16 21:22:41;;;;;;;21.02;10.13;;;;;;;;;;8407177;28;20044;-87
2023/01/16 21:26:46;;;;;;;16.85;8.20;;;;;;;;;;8419488;28;20059;-87
2023/01/16 21:30:49;;;;;;;18.15;8.32;;;;;;;;;;8401365;28;20063;-87
2023/01/16 21:34:53;;;;;;;11.07;5.22;;;;;;;;;;8401087;28;20051;-87
2023/01/16 21:38:55;;;;;;;18.10;8.73;;;;;;;;;;8401228;28;20044;-86
2023/01/16 21:47:21;;;;;;;13.75;7.68;;;;;;;;;;8414112;28;20064;-87
2023/01/16 21:51:26;;;;;;;19.52;9.77;;;;;;;;;;8400282;28;20113;-87
2023/01/16 21:55:29;;;;;;;14.95;8.75;;;;;;;;;;8400339;28;20075;-86
2023/01/16 21:59:33;;;;;;;17.38;7.53;;;;;;;;;;8400020;28;20127;-86
2023/01/16 22:03:36;;;;;;;15.93;7.82;;;;;;;;;;8399978;28;20142;-86
2023/01/16 22:07:39;;;;;;;21.27;9.73;;;;;;;;;;8431161;28;20044;-86
2023/01/16 22:24:53;;;;;;;16.60;8.63;;;;;;;;;;8394133;28;20131;-86
2023/01/16 22:28:56;;;;;;;15.35;8.18;;;;;;;;;;8399144;28;20090;-86
2023/01/16 22:33:01;;;;;;;15.23;8.13;;;;;;;;;;8399225;28;20135;-86
2023/01/16 22:37:04;;;;;;;19.77;9.63;;;;;;;;;;8432306;28;20123;-86
2023/01/16 22:41:08;;;;;;;19.35;9.65;;;;;;;;;;8406366;28;20128;-86
2023/01/16 22:49:45;;;;;;;14.70;7.50;;;;;;;;;;8351246;28;20559;-86
2023/01/16 22:53:48;;;;;;;17.05;8.80;;;;;;;;;;8431967;28;20044;-85
2023/01/16 22:57:52;;;;;;;13.93;7.53;;;;;;;;;;8383193;28;20393;-86
2023/01/16 23:01:55;;;;;;;18.98;9.32;;;;;;;;;;8408755;28;20547;-85
2023/01/16 23:06:00;;;;;;;6.13;3.83;;;;;;;;;;8431535;28;20044;-86
2023/01/16 23:10:02;;;;;;;21.58;10.77;;;;;;;;;;8406953;28;20087;-86
2023/01/16 23:14:07;;;;;;;19.60;8.77;;;;;;;;;;8397491;28;20051;-86
2023/01/16 23:18:09;;;;;;;13.88;6.85;;;;;;;;;;8407764;28;20449;-86
2023/01/16 23:22:14;;;;;;;14.60;7.90;;;;;;;;;;8430794;28;20472;-86
2023/01/16 23:26:17;;;;;;;10.35;4.72;;;;;;;;;;8420203;28;20053;-85
2023/01/16 23:30:19;;;;;;;13.70;8.07;;;;;;;;;;8396331;28;20127;-86
2023/01/16 23:34:25;;;;;;;15.60;8.38;;;;;;;;;;8397453;28;20044;-86
2023/01/16 23:38:30;;;;;;;9.82;5.50;;;;;;;;;;8397334;28;20041;-85
2023/01/16 23:46:53;;;;;;;12.95;6.90;;;;;;;;;;8396840;28;20047;-86
2023/01/16 23:50:56;;;;;;;16.10;8.65;;;;;;;;;;8397156;28;20422;-86
2023/01/16 23:55:00;;;;;;;15.63;8.07;;;;;;;;;;8429485;28;20547;-86
2023/01/16 23:59:03;;;;;;;14.77;7.47;;;;;;;;;;8416045;28;20043;-85
